sensor_id;sensor_type;location;lat;lon;timestamp;temperature;humidity
3752;DHT22;50827;47.014;7.652;2022-09-21T00:01:18;10.30;99.90
3752;DHT22;50827;47.014;7.652;2022-09-21T00:03:47;10.30;99.90
3752;DHT22;50827;47.014;7.652;2022-09-21T00:06:16;10.30;99.90
3752;DHT22;50827;47.014;7.652;2022-09-21T00:08:44;10.20;99.90
3752;DHT22;50827;47.014;7.652;2022-09-21T00:11:12;10.30;99.90
3752;DHT22;50827;47.014;7.652;2022-09-21T00:13:39;10.30;99.90
3752;DHT22;50827;47.014;7.652;2022-09-21T00:16:07;10.20;99.90
3752;DHT22;50827;47.014;7.652;2022-09-21T00:18:36;10.20;99.90
3752;DHT22;50827;47.014;7.652;2022-09-21T00:21:07;10.20;99.90
3752;DHT22;50827;47.014;7.652;2022-09-21T00:23:35;10.20;99.90
3752;DHT22;50827;47.014;7.652;2022-09-21T00:26:06;10.20;99.90
3752;DHT22;50827;47.014;7.652;2022-09-21T00:28:33;10.10;99.90
3752;DHT22;50827;47.014;7.652;2022-09-21T00:31:04;10.20;99.90
3752;DHT22;50827;47.014;7.652;2022-09-21T00:33:32;10.20;99.90
3752;DHT22;50827;47.014;7.652;2022-09-21T00:36:04;10.20;99.90
3752;DHT22;50827;47.014;7.652;2022-09-21T00:38:32;10.00;99.90
3752;DHT22;50827;47.014;7.652;2022-09-21T00:40:59;10.10;99.90
3752;DHT22;50827;47.014;7.652;2022-09-21T00:43:26;10.10;99.90
3752;DHT22;50827;47.014;7.652;2022-09-21T00:46:26;10.10;99.90
3752;DHT22;50827;47.014;7.652;2022-09-21T00:48:54;10.00;99.90
3752;DHT22;50827;47.014;7.652;2022-09-21T00:51:21;9.90;99.90
3752;DHT22;50827;47.014;7.652;2022-09-21T00:53:51;10.00;99.90
3752;DHT22;50827;47.014;7.652;2022-09-21T00:56:19;10.00;99.90
3752;DHT22;50827;47.014;7.652;2022-09-21T00:58:49;10.00;99.90
3752;DHT22;50827;47.014;7.652;2022-09-21T01:01:16;10.00;99.90
3752;DHT22;50827;47.014;7.652;2022-09-21T01:03:45;10.00;99.90
3752;DHT22;50827;47.014;7.652;2022-09-21T01:06:13;10.00;99.90
3752;DHT22;50827;47.014;7.652;2022-09-21T01:08:41;10.10;99.90
3752;DHT22;50827;47.014;7.652;2022-09-21T01:11:15;10.00;99.90
3752;DHT22;50827;47.014;7.652;2022-09-21T01:16:46;10.00;99.90
3752;DHT22;50827;47.014;7.652;2022-09-21T01:22:01;10.00;99.90
3752;DHT22;50827;47.014;7.652;2022-09-21T01:24:48;10.00;99.90
3752;DHT22;50827;47.014;7.652;2022-09-21T01:30:58;10.00;99.90
3752;DHT22;50827;47.014;7.652;2022-09-21T01:33:31;10.00;99.90
3752;DHT22;50827;47.014;7.652;2022-09-21T01:36:09;10.00;99.90
3752;DHT22;50827;47.014;7.652;2022-09-21T01:38:43;10.10;99.90
3752;DHT22;50827;47.014;7.652;2022-09-21T01:41:12;10.10;99.90
3752;DHT22;50827;47.014;7.652;2022-09-21T01:43:46;10.10;99.90
3752;DHT22;50827;47.014;7.652;2022-09-21T01:46:18;10.10;99.90
3752;DHT22;50827;47.014;7.652;2022-09-21T01:48:51;10.10;99.90
3752;DHT22;50827;47.014;7.652;2022-09-21T01:51:20;10.10;99.90
3752;DHT22;50827;47.014;7.652;2022-09-21T01:53:48;10.10;99.90
3752;DHT22;50827;47.014;7.652;2022-09-21T01:56:24;10.10;99.90
3752;DHT22;50827;47.014;7.652;2022-09-21T02:01:20;10.00;99.90
3752;DHT22;50827;47.014;7.652;2022-09-21T02:03:51;10.00;99.90
3752;DHT22;50827;47.014;7.652;2022-09-21T02:06:20;9.90;99.90
3752;DHT22;50827;47.014;7.652;2022-09-21T02:08:46;9.90;99.90
3752;DHT22;50827;47.014;7.652;2022-09-21T02:11:13;9.80;99.90
3752;DHT22;50827;47.014;7.652;2022-09-21T02:13:44;9.90;99.90
3752;DHT22;50827;47.014;7.652;2022-09-21T02:16:35;9.80;99.90
3752;DHT22;50827;47.014;7.652;2022-09-21T02:19:09;9.80;99.90
3752;DHT22;50827;47.014;7.652;2022-09-21T02:24:43;9.60;99.90
3752;DHT22;50827;47.014;7.652;2022-09-21T02:27:18;9.60;99.90
3752;DHT22;50827;47.014;7.652;2022-09-21T02:30:21;9.60;99.90
3752;DHT22;50827;47.014;7.652;2022-09-21T02:32:55;9.60;99.90
3752;DHT22;50827;47.014;7.652;2022-09-21T02:38:07;9.60;99.90
3752;DHT22;50827;47.014;7.652;2022-09-21T02:40:51;9.60;99.90
3752;DHT22;50827;47.014;7.652;2022-09-21T02:43:39;9.60;99.90
3752;DHT22;50827;47.014;7.652;2022-09-21T02:46:23;9.60;99.90
3752;DHT22;50827;47.014;7.652;2022-09-21T02:48:54;9.60;99.90
3752;DHT22;50827;47.014;7.652;2022-09-21T02:51:29;9.60;99.90
3752;DHT22;50827;47.014;7.652;2022-09-21T02:54:02;9.70;99.90
3752;DHT22;50827;47.014;7.652;2022-09-21T02:56:32;9.70;99.90
3752;DHT22;50827;47.014;7.652;2022-09-21T02:59:02;9.60;99.90
3752;DHT22;50827;47.014;7.652;2022-09-21T03:01:31;9.60;99.90
3752;DHT22;50827;47.014;7.652;2022-09-21T03:04:00;9.50;99.90
3752;DHT22;50827;47.014;7.652;2022-09-21T03:06:27;9.50;99.90
3752;DHT22;50827;47.014;7.652;2022-09-21T03:08:53;9.50;99.90
3752;DHT22;50827;47.014;7.652;2022-09-21T03:11:20;9.40;99.90
3752;DHT22;50827;47.014;7.652;2022-09-21T03:13:46;9.40;99.90
3752;DHT22;50827;47.014;7.652;2022-09-21T03:16:13;9.30;99.90
3752;DHT22;50827;47.014;7.652;2022-09-21T03:18:40;9.30;99.90
3752;DHT22;50827;47.014;7.652;2022-09-21T03:21:10;9.20;99.90
3752;DHT22;50827;47.014;7.652;2022-09-21T03:23:38;9.20;99.90
3752;DHT22;50827;47.014;7.652;2022-09-21T03:26:05;9.20;99.90
3752;DHT22;50827;47.014;7.652;2022-09-21T03:28:34;9.20;99.90
3752;DHT22;50827;47.014;7.652;2022-09-21T03:31:01;9.20;99.90
3752;DHT22;50827;47.014;7.652;2022-09-21T03:33:28;9.20;99.90
3752;DHT22;50827;47.014;7.652;2022-09-21T03:35:57;9.10;99.90
3752;DHT22;50827;47.014;7.652;2022-09-21T03:38:23;9.10;99.90
3752;DHT22;50827;47.014;7.652;2022-09-21T03:40:52;9.10;99.90
3752;DHT22;50827;47.014;7.652;2022-09-21T03:43:23;9.10;99.90
3752;DHT22;50827;47.014;7.652;2022-09-21T03:45:52;9.00;99.90
3752;DHT22;50827;47.014;7.652;2022-09-21T03:48:19;9.00;99.90
3752;DHT22;50827;47.014;7.652;2022-09-21T03:50:47;9.00;99.90
3752;DHT22;50827;47.014;7.652;2022-09-21T03:53:14;8.90;99.90
3752;DHT22;50827;47.014;7.652;2022-09-21T03:55:42;8.90;99.90
3752;DHT22;50827;47.014;7.652;2022-09-21T03:58:09;8.90;99.90
3752;DHT22;50827;47.014;7.652;2022-09-21T04:00:36;8.90;99.90
3752;DHT22;50827;47.014;7.652;2022-09-21T04:03:06;8.90;99.90
3752;DHT22;50827;47.014;7.652;2022-09-21T04:05:33;8.90;99.90
3752;DHT22;50827;47.014;7.652;2022-09-21T04:08:02;8.80;99.90
3752;DHT22;50827;47.014;7.652;2022-09-21T04:10:29;8.70;99.90
3752;DHT22;50827;47.014;7.652;2022-09-21T04:12:59;8.50;99.90
3752;DHT22;50827;47.014;7.652;2022-09-21T04:15:27;8.50;99.90
3752;DHT22;50827;47.014;7.652;2022-09-21T04:17:55;8.50;99.90
3752;DHT22;50827;47.014;7.652;2022-09-21T04:20:22;8.40;99.90
3752;DHT22;50827;47.014;7.652;2022-09-21T04:22:49;8.50;99.90
3752;DHT22;50827;47.014;7.652;2022-09-21T04:25:21;8.50;99.90
3752;DHT22;50827;47.014;7.652;2022-09-21T04:27:48;8.50;99.90
3752;DHT22;50827;47.014;7.652;2022-09-21T04:30:15;8.40;99.90
3752;DHT22;50827;47.014;7.652;2022-09-21T04:32:48;8.50;99.90
3752;DHT22;50827;47.014;7.652;2022-09-21T04:35:16;8.50;99.90
3752;DHT22;50827;47.014;7.652;2022-09-21T04:37:43;8.50;99.90
3752;DHT22;50827;47.014;7.652;2022-09-21T04:40:10;8.50;99.90
3752;DHT22;50827;47.014;7.652;2022-09-21T04:42:36;8.50;99.90
3752;DHT22;50827;47.014;7.652;2022-09-21T04:45:06;8.50;99.90
3752;DHT22;50827;47.014;7.652;2022-09-21T04:47:33;8.50;99.90
3752;DHT22;50827;47.014;7.652;2022-09-21T04:49:59;8.40;99.90
3752;DHT22;50827;47.014;7.652;2022-09-21T04:52:26;8.40;99.90
3752;DHT22;50827;47.014;7.652;2022-09-21T04:54:52;8.40;99.90
3752;DHT22;50827;47.014;7.652;2022-09-21T04:57:19;8.40;99.90
3752;DHT22;50827;47.014;7.652;2022-09-21T04:59:51;8.40;99.90
3752;DHT22;50827;47.014;7.652;2022-09-21T05:02:17;8.30;99.90
3752;DHT22;50827;47.014;7.652;2022-09-21T05:04:44;8.30;99.90
3752;DHT22;50827;47.014;7.652;2022-09-21T05:07:16;8.30;99.90
3752;DHT22;50827;47.014;7.652;2022-09-21T05:09:43;8.30;99.90
3752;DHT22;50827;47.014;7.652;2022-09-21T05:12:30;8.30;99.90
3752;DHT22;50827;47.014;7.652;2022-09-21T05:14:58;8.30;99.90
3752;DHT22;50827;47.014;7.652;2022-09-21T05:17:25;8.30;99.90
3752;DHT22;50827;47.014;7.652;2022-09-21T05:19:52;8.20;99.90
3752;DHT22;50827;47.014;7.652;2022-09-21T05:22:20;8.20;99.90
3752;DHT22;50827;47.014;7.652;2022-09-21T05:24:47;8.20;99.90
3752;DHT22;50827;47.014;7.652;2022-09-21T05:27:14;8.20;99.90
3752;DHT22;50827;47.014;7.652;2022-09-21T05:29:41;8.20;99.90
3752;DHT22;50827;47.014;7.652;2022-09-21T05:40:07;8.00;99.90
3752;DHT22;50827;47.014;7.652;2022-09-21T05:42:35;8.00;99.90
3752;DHT22;50827;47.014;7.652;2022-09-21T05:45:03;8.00;99.90
3752;DHT22;50827;47.014;7.652;2022-09-21T05:47:37;8.00;99.90
3752;DHT22;50827;47.014;7.652;2022-09-21T05:50:24;8.00;99.90
3752;DHT22;50827;47.014;7.652;2022-09-21T06:01:15;8.10;99.90
3752;DHT22;50827;47.014;7.652;2022-09-21T06:03:45;8.00;99.90
3752;DHT22;50827;47.014;7.652;2022-09-21T06:06:19;8.10;99.90
3752;DHT22;50827;47.014;7.652;2022-09-21T06:08:46;8.00;99.90
3752;DHT22;50827;47.014;7.652;2022-09-21T06:11:13;8.10;99.90
3752;DHT22;50827;47.014;7.652;2022-09-21T06:13:39;8.10;99.90
3752;DHT22;50827;47.014;7.652;2022-09-21T06:16:07;8.20;99.90
3752;DHT22;50827;47.014;7.652;2022-09-21T06:18:38;8.20;99.90
3752;DHT22;50827;47.014;7.652;2022-09-21T06:21:12;8.30;99.90
3752;DHT22;50827;47.014;7.652;2022-09-21T06:23:39;8.30;99.90
3752;DHT22;50827;47.014;7.652;2022-09-21T06:26:06;8.30;99.90
3752;DHT22;50827;47.014;7.652;2022-09-21T06:28:32;8.30;99.90
3752;DHT22;50827;47.014;7.652;2022-09-21T06:30:59;8.40;99.90
3752;DHT22;50827;47.014;7.652;2022-09-21T06:33:26;8.40;99.90
3752;DHT22;50827;47.014;7.652;2022-09-21T06:35:57;8.40;99.90
3752;DHT22;50827;47.014;7.652;2022-09-21T06:38:27;8.50;99.90
3752;DHT22;50827;47.014;7.652;2022-09-21T06:40:59;8.60;99.90
3752;DHT22;50827;47.014;7.652;2022-09-21T06:43:33;8.60;99.90
3752;DHT22;50827;47.014;7.652;2022-09-21T06:46:01;8.70;99.90
3752;DHT22;50827;47.014;7.652;2022-09-21T06:48:29;8.70;99.90
3752;DHT22;50827;47.014;7.652;2022-09-21T06:51:02;8.90;99.90
3752;DHT22;50827;47.014;7.652;2022-09-21T06:53:33;8.90;99.90
3752;DHT22;50827;47.014;7.652;2022-09-21T06:56:05;9.00;99.90
3752;DHT22;50827;47.014;7.652;2022-09-21T06:58:32;9.10;99.90
3752;DHT22;50827;47.014;7.652;2022-09-21T07:01:04;9.10;99.90
3752;DHT22;50827;47.014;7.652;2022-09-21T07:03:36;9.10;99.90
3752;DHT22;50827;47.014;7.652;2022-09-21T07:06:03;9.20;99.90
3752;DHT22;50827;47.014;7.652;2022-09-21T07:08:35;9.30;99.90
3752;DHT22;50827;47.014;7.652;2022-09-21T07:11:22;9.30;99.90
3752;DHT22;50827;47.014;7.652;2022-09-21T07:13:51;9.40;99.90
3752;DHT22;50827;47.014;7.652;2022-09-21T07:16:20;9.40;99.90
3752;DHT22;50827;47.014;7.652;2022-09-21T07:18:47;9.50;99.90
3752;DHT22;50827;47.014;7.652;2022-09-21T07:21:14;9.50;99.90
3752;DHT22;50827;47.014;7.652;2022-09-21T07:23:41;9.60;99.90
3752;DHT22;50827;47.014;7.652;2022-09-21T07:26:10;9.70;99.90
3752;DHT22;50827;47.014;7.652;2022-09-21T07:28:37;9.80;99.90
3752;DHT22;50827;47.014;7.652;2022-09-21T07:31:11;9.80;99.90
3752;DHT22;50827;47.014;7.652;2022-09-21T07:33:40;9.90;99.90
3752;DHT22;50827;47.014;7.652;2022-09-21T07:36:07;10.00;99.90
3752;DHT22;50827;47.014;7.652;2022-09-21T07:38:40;10.10;99.90
3752;DHT22;50827;47.014;7.652;2022-09-21T07:41:08;10.10;99.90
3752;DHT22;50827;47.014;7.652;2022-09-21T07:43:35;10.20;99.90
3752;DHT22;50827;47.014;7.652;2022-09-21T07:46:06;10.30;99.90
3752;DHT22;50827;47.014;7.652;2022-09-21T07:48:32;10.30;99.90
3752;DHT22;50827;47.014;7.652;2022-09-21T07:51:01;10.40;99.90
3752;DHT22;50827;47.014;7.652;2022-09-21T07:53:33;10.50;99.90
3752;DHT22;50827;47.014;7.652;2022-09-21T07:56:08;10.60;99.90
3752;DHT22;50827;47.014;7.652;2022-09-21T07:58:36;10.70;99.90
3752;DHT22;50827;47.014;7.652;2022-09-21T08:01:23;10.70;99.90
3752;DHT22;50827;47.014;7.652;2022-09-21T08:03:51;10.80;99.90
3752;DHT22;50827;47.014;7.652;2022-09-21T08:06:19;10.90;99.90
3752;DHT22;50827;47.014;7.652;2022-09-21T08:08:46;10.90;99.90
3752;DHT22;50827;47.014;7.652;2022-09-21T08:11:19;11.00;99.90
3752;DHT22;50827;47.014;7.652;2022-09-21T08:13:50;11.00;99.90
3752;DHT22;50827;47.014;7.652;2022-09-21T08:16:17;11.10;99.90
3752;DHT22;50827;47.014;7.652;2022-09-21T08:18:44;11.10;99.90
3752;DHT22;50827;47.014;7.652;2022-09-21T08:21:12;11.20;99.90
3752;DHT22;50827;47.014;7.652;2022-09-21T08:23:39;11.30;99.90
3752;DHT22;50827;47.014;7.652;2022-09-21T08:26:10;11.30;99.90
3752;DHT22;50827;47.014;7.652;2022-09-21T08:28:40;11.30;99.90
3752;DHT22;50827;47.014;7.652;2022-09-21T08:31:07;11.30;99.90
3752;DHT22;50827;47.014;7.652;2022-09-21T08:33:35;11.40;99.90
3752;DHT22;50827;47.014;7.652;2022-09-21T08:36:02;11.40;99.90
3752;DHT22;50827;47.014;7.652;2022-09-21T08:38:36;11.50;99.90
3752;DHT22;50827;47.014;7.652;2022-09-21T08:44:14;11.60;99.90
3752;DHT22;50827;47.014;7.652;2022-09-21T08:46:46;11.60;99.90
3752;DHT22;50827;47.014;7.652;2022-09-21T08:49:18;11.60;99.90
3752;DHT22;50827;47.014;7.652;2022-09-21T08:51:56;11.60;99.90
3752;DHT22;50827;47.014;7.652;2022-09-21T08:54:50;11.60;99.90
3752;DHT22;50827;47.014;7.652;2022-09-21T08:57:18;11.70;99.90
3752;DHT22;50827;47.014;7.652;2022-09-21T08:59:46;11.80;99.90
3752;DHT22;50827;47.014;7.652;2022-09-21T09:05:37;11.90;99.90
3752;DHT22;50827;47.014;7.652;2022-09-21T09:08:31;11.90;99.90
3752;DHT22;50827;47.014;7.652;2022-09-21T09:11:20;11.90;99.90
3752;DHT22;50827;47.014;7.652;2022-09-21T09:14:26;12.00;99.90
3752;DHT22;50827;47.014;7.652;2022-09-21T09:22:01;12.20;99.90
3752;DHT22;50827;47.014;7.652;2022-09-21T09:24:35;12.30;99.90
3752;DHT22;50827;47.014;7.652;2022-09-21T09:27:38;12.30;99.90
3752;DHT22;50827;47.014;7.652;2022-09-21T09:30:24;12.40;99.90
3752;DHT22;50827;47.014;7.652;2022-09-21T09:35:29;12.50;99.90
3752;DHT22;50827;47.014;7.652;2022-09-21T09:38:03;12.60;99.90
3752;DHT22;50827;47.014;7.652;2022-09-21T09:44:14;12.60;99.90
3752;DHT22;50827;47.014;7.652;2022-09-21T09:52:25;12.70;99.90
3752;DHT22;50827;47.014;7.652;2022-09-21T09:54:53;12.80;99.90
3752;DHT22;50827;47.014;7.652;2022-09-21T09:57:29;12.90;99.90
3752;DHT22;50827;47.014;7.652;2022-09-21T10:00:05;12.90;99.90
3752;DHT22;50827;47.014;7.652;2022-09-21T10:02:54;12.80;99.90
3752;DHT22;50827;47.014;7.652;2022-09-21T10:05:22;12.90;99.90
3752;DHT22;50827;47.014;7.652;2022-09-21T10:07:50;12.90;99.90
3752;DHT22;50827;47.014;7.652;2022-09-21T10:10:39;13.00;99.90
3752;DHT22;50827;47.014;7.652;2022-09-21T10:13:37;13.10;99.90
3752;DHT22;50827;47.014;7.652;2022-09-21T10:21:21;13.20;99.90
3752;DHT22;50827;47.014;7.652;2022-09-21T10:24:00;13.20;99.90
3752;DHT22;50827;47.014;7.652;2022-09-21T10:26:34;13.30;99.90
3752;DHT22;50827;47.014;7.652;2022-09-21T10:29:18;13.40;99.90
3752;DHT22;50827;47.014;7.652;2022-09-21T10:31:54;13.40;99.90
3752;DHT22;50827;47.014;7.652;2022-09-21T10:34:27;13.40;99.90
3752;DHT22;50827;47.014;7.652;2022-09-21T10:37:19;13.40;99.90
3752;DHT22;50827;47.014;7.652;2022-09-21T10:39:48;13.40;99.90
3752;DHT22;50827;47.014;7.652;2022-09-21T10:42:17;13.50;99.90
3752;DHT22;50827;47.014;7.652;2022-09-21T10:44:49;13.60;99.90
3752;DHT22;50827;47.014;7.652;2022-09-21T10:47:35;13.60;99.90
3752;DHT22;50827;47.014;7.652;2022-09-21T10:50:19;13.70;99.90
3752;DHT22;50827;47.014;7.652;2022-09-21T10:52:47;13.70;99.90
3752;DHT22;50827;47.014;7.652;2022-09-21T10:55:19;13.70;99.90
3752;DHT22;50827;47.014;7.652;2022-09-21T10:57:47;13.70;99.90
3752;DHT22;50827;47.014;7.652;2022-09-21T11:02:46;13.80;99.90
3752;DHT22;50827;47.014;7.652;2022-09-21T11:05:26;13.90;99.90
3752;DHT22;50827;47.014;7.652;2022-09-21T11:16:21;14.00;99.90
3752;DHT22;50827;47.014;7.652;2022-09-21T11:19:02;14.10;99.90
3752;DHT22;50827;47.014;7.652;2022-09-21T11:27:17;14.30;99.90
3752;DHT22;50827;47.014;7.652;2022-09-21T11:30:10;14.30;99.90
3752;DHT22;50827;47.014;7.652;2022-09-21T11:41:09;14.40;99.90
3752;DHT22;50827;47.014;7.652;2022-09-21T11:49:21;14.40;99.90
3752;DHT22;50827;47.014;7.652;2022-09-21T11:54:55;14.60;99.90
3752;DHT22;50827;47.014;7.652;2022-09-21T11:57:48;14.70;99.90
3752;DHT22;50827;47.014;7.652;2022-09-21T12:00:21;14.70;99.90
3752;DHT22;50827;47.014;7.652;2022-09-21T12:13:35;14.90;99.90
3752;DHT22;50827;47.014;7.652;2022-09-21T12:16:22;14.90;99.90
3752;DHT22;50827;47.014;7.652;2022-09-21T12:21:55;15.00;99.90
3752;DHT22;50827;47.014;7.652;2022-09-21T12:24:32;15.10;99.90
3752;DHT22;50827;47.014;7.652;2022-09-21T12:27:20;15.00;99.90
3752;DHT22;50827;47.014;7.652;2022-09-21T12:29:51;15.00;99.90
3752;DHT22;50827;47.014;7.652;2022-09-21T12:35:18;15.00;99.90
3752;DHT22;50827;47.014;7.652;2022-09-21T12:37:56;15.00;99.90
3752;DHT22;50827;47.014;7.652;2022-09-21T12:40:33;15.00;99.90
3752;DHT22;50827;47.014;7.652;2022-09-21T12:43:16;15.10;99.90
3752;DHT22;50827;47.014;7.652;2022-09-21T12:45:51;15.20;99.90
3752;DHT22;50827;47.014;7.652;2022-09-21T12:48:38;15.20;99.90
3752;DHT22;50827;47.014;7.652;2022-09-21T12:53:48;15.30;99.90
3752;DHT22;50827;47.014;7.652;2022-09-21T13:02:14;15.20;99.90
3752;DHT22;50827;47.014;7.652;2022-09-21T13:10:00;15.30;99.90
3752;DHT22;50827;47.014;7.652;2022-09-21T13:12:39;15.40;99.90
3752;DHT22;50827;47.014;7.652;2022-09-21T13:15:25;15.50;99.90
3752;DHT22;50827;47.014;7.652;2022-09-21T13:18:17;15.40;99.90
3752;DHT22;50827;47.014;7.652;2022-09-21T13:20:44;15.50;99.90
3752;DHT22;50827;47.014;7.652;2022-09-21T13:23:17;15.50;99.90
3752;DHT22;50827;47.014;7.652;2022-09-21T13:25:48;15.60;99.90
3752;DHT22;50827;47.014;7.652;2022-09-21T13:30:44;15.60;99.90
3752;DHT22;50827;47.014;7.652;2022-09-21T13:38:32;15.70;99.90
3752;DHT22;50827;47.014;7.652;2022-09-21T13:49:14;15.90;99.90
3752;DHT22;50827;47.014;7.652;2022-09-21T13:54:53;15.90;99.90
3752;DHT22;50827;47.014;7.652;2022-09-21T14:02:44;15.80;99.90
3752;DHT22;50827;47.014;7.652;2022-09-21T14:05:44;15.70;99.90
3752;DHT22;50827;47.014;7.652;2022-09-21T14:11:06;15.80;99.90
3752;DHT22;50827;47.014;7.652;2022-09-21T14:13:35;15.90;99.90
3752;DHT22;50827;47.014;7.652;2022-09-21T14:19:00;15.90;99.90
3752;DHT22;50827;47.014;7.652;2022-09-21T14:21:27;15.90;99.90
3752;DHT22;50827;47.014;7.652;2022-09-21T14:24:33;15.90;99.90
3752;DHT22;50827;47.014;7.652;2022-09-21T14:32:25;15.90;99.90
3752;DHT22;50827;47.014;7.652;2022-09-21T14:35:04;16.00;99.90
3752;DHT22;50827;47.014;7.652;2022-09-21T14:37:40;16.10;99.90
3752;DHT22;50827;47.014;7.652;2022-09-21T14:40:23;16.10;99.90
3752;DHT22;50827;47.014;7.652;2022-09-21T14:42:55;16.10;99.90
3752;DHT22;50827;47.014;7.652;2022-09-21T14:50:55;16.00;99.90
3752;DHT22;50827;47.014;7.652;2022-09-21T14:53:50;16.00;99.90
3752;DHT22;50827;47.014;7.652;2022-09-21T14:56:43;16.00;99.90
3752;DHT22;50827;47.014;7.652;2022-09-21T15:02:20;16.10;99.90
3752;DHT22;50827;47.014;7.652;2022-09-21T15:07:40;16.10;99.90
3752;DHT22;50827;47.014;7.652;2022-09-21T15:10:29;16.10;99.90
3752;DHT22;50827;47.014;7.652;2022-09-21T15:13:29;16.20;99.90
3752;DHT22;50827;47.014;7.652;2022-09-21T15:19:09;16.20;99.90
3752;DHT22;50827;47.014;7.652;2022-09-21T15:21:40;16.10;99.90
3752;DHT22;50827;47.014;7.652;2022-09-21T15:24:23;16.10;99.90
3752;DHT22;50827;47.014;7.652;2022-09-21T15:26:53;16.20;99.90
3752;DHT22;50827;47.014;7.652;2022-09-21T15:29:25;16.10;99.90
3752;DHT22;50827;47.014;7.652;2022-09-21T15:31:52;16.10;99.90
3752;DHT22;50827;47.014;7.652;2022-09-21T15:34:20;16.10;99.90
3752;DHT22;50827;47.014;7.652;2022-09-21T15:36:48;16.10;99.90
3752;DHT22;50827;47.014;7.652;2022-09-21T15:39:28;16.20;99.90
3752;DHT22;50827;47.014;7.652;2022-09-21T15:42:11;16.20;99.90
3752;DHT22;50827;47.014;7.652;2022-09-21T15:44:44;16.20;99.90
3752;DHT22;50827;47.014;7.652;2022-09-21T15:47:16;16.20;99.90
3752;DHT22;50827;47.014;7.652;2022-09-21T15:49:44;16.10;99.90
3752;DHT22;50827;47.014;7.652;2022-09-21T15:52:33;16.10;99.90
3752;DHT22;50827;47.014;7.652;2022-09-21T15:55:15;16.10;99.90
3752;DHT22;50827;47.014;7.652;2022-09-21T15:57:49;16.10;99.90
3752;DHT22;50827;47.014;7.652;2022-09-21T16:00:22;16.00;99.90
3752;DHT22;50827;47.014;7.652;2022-09-21T16:03:05;16.00;99.90
3752;DHT22;50827;47.014;7.652;2022-09-21T16:05:42;15.90;99.90
3752;DHT22;50827;47.014;7.652;2022-09-21T16:10:48;16.00;99.90
3752;DHT22;50827;47.014;7.652;2022-09-21T16:13:22;15.90;99.90
3752;DHT22;50827;47.014;7.652;2022-09-21T16:16:11;15.90;99.90
3752;DHT22;50827;47.014;7.652;2022-09-21T16:18:49;15.90;99.90
3752;DHT22;50827;47.014;7.652;2022-09-21T16:21:34;15.90;99.90
3752;DHT22;50827;47.014;7.652;2022-09-21T16:24:15;15.90;99.90
3752;DHT22;50827;47.014;7.652;2022-09-21T16:26:59;15.90;99.90
3752;DHT22;50827;47.014;7.652;2022-09-21T16:29:40;15.90;99.90
3752;DHT22;50827;47.014;7.652;2022-09-21T16:32:18;15.90;99.90
3752;DHT22;50827;47.014;7.652;2022-09-21T16:34:49;15.80;99.90
3752;DHT22;50827;47.014;7.652;2022-09-21T16:39:43;15.80;99.90
3752;DHT22;50827;47.014;7.652;2022-09-21T16:42:11;15.80;99.90
3752;DHT22;50827;47.014;7.652;2022-09-21T16:44:38;15.80;99.90
3752;DHT22;50827;47.014;7.652;2022-09-21T16:47:15;15.70;99.90
3752;DHT22;50827;47.014;7.652;2022-09-21T16:49:43;15.70;99.90
3752;DHT22;50827;47.014;7.652;2022-09-21T16:52:10;15.60;99.90
3752;DHT22;50827;47.014;7.652;2022-09-21T16:54:37;15.60;99.90
3752;DHT22;50827;47.014;7.652;2022-09-21T16:57:05;15.50;99.90
3752;DHT22;50827;47.014;7.652;2022-09-21T16:59:32;15.50;99.90
3752;DHT22;50827;47.014;7.652;2022-09-21T17:02:01;15.50;99.90
3752;DHT22;50827;47.014;7.652;2022-09-21T17:04:32;15.50;99.90
3752;DHT22;50827;47.014;7.652;2022-09-21T17:06:59;15.40;99.90
3752;DHT22;50827;47.014;7.652;2022-09-21T17:09:33;15.40;99.90
3752;DHT22;50827;47.014;7.652;2022-09-21T17:12:02;15.40;99.90
3752;DHT22;50827;47.014;7.652;2022-09-21T17:14:30;15.40;99.90
3752;DHT22;50827;47.014;7.652;2022-09-21T17:17:02;15.40;99.90
3752;DHT22;50827;47.014;7.652;2022-09-21T17:19:31;15.30;99.90
3752;DHT22;50827;47.014;7.652;2022-09-21T17:21:58;15.30;99.90
3752;DHT22;50827;47.014;7.652;2022-09-21T17:24:25;15.30;99.90
3752;DHT22;50827;47.014;7.652;2022-09-21T17:27:16;15.20;99.90
3752;DHT22;50827;47.014;7.652;2022-09-21T17:29:44;15.20;99.90
3752;DHT22;50827;47.014;7.652;2022-09-21T17:32:14;15.10;99.90
3752;DHT22;50827;47.014;7.652;2022-09-21T17:34:41;14.90;99.90
3752;DHT22;50827;47.014;7.652;2022-09-21T17:37:08;14.90;99.90
3752;DHT22;50827;47.014;7.652;2022-09-21T17:39:35;14.90;99.90
3752;DHT22;50827;47.014;7.652;2022-09-21T17:42:10;14.90;99.90
3752;DHT22;50827;47.014;7.652;2022-09-21T17:47:22;14.70;99.90
3752;DHT22;50827;47.014;7.652;2022-09-21T17:49:54;14.70;99.90
3752;DHT22;50827;47.014;7.652;2022-09-21T17:52:22;14.70;99.90
3752;DHT22;50827;47.014;7.652;2022-09-21T17:55:11;14.60;99.90
3752;DHT22;50827;47.014;7.652;2022-09-21T17:57:58;14.60;99.90
3752;DHT22;50827;47.014;7.652;2022-09-21T18:01:02;14.50;99.90
3752;DHT22;50827;47.014;7.652;2022-09-21T18:03:32;14.40;99.90
3752;DHT22;50827;47.014;7.652;2022-09-21T18:06:01;14.40;99.90
3752;DHT22;50827;47.014;7.652;2022-09-21T18:08:33;14.30;99.90
3752;DHT22;50827;47.014;7.652;2022-09-21T18:11:12;14.30;99.90
3752;DHT22;50827;47.014;7.652;2022-09-21T18:16:52;14.30;99.90
3752;DHT22;50827;47.014;7.652;2022-09-21T18:19:43;14.10;99.90
3752;DHT22;50827;47.014;7.652;2022-09-21T18:24:50;14.00;99.90
3752;DHT22;50827;47.014;7.652;2022-09-21T18:27:19;14.00;99.90
3752;DHT22;50827;47.014;7.652;2022-09-21T18:29:46;13.90;99.90
3752;DHT22;50827;47.014;7.652;2022-09-21T18:32:26;13.80;99.90
3752;DHT22;50827;47.014;7.652;2022-09-21T18:38:09;13.70;99.90
3752;DHT22;50827;47.014;7.652;2022-09-21T18:41:13;13.70;99.90
3752;DHT22;50827;47.014;7.652;2022-09-21T18:52:38;13.40;99.90
3752;DHT22;50827;47.014;7.652;2022-09-21T18:55:22;13.40;99.90
3752;DHT22;50827;47.014;7.652;2022-09-21T18:57:51;13.30;99.90
3752;DHT22;50827;47.014;7.652;2022-09-21T19:00:18;13.30;99.90
3752;DHT22;50827;47.014;7.652;2022-09-21T19:02:46;13.20;99.90
3752;DHT22;50827;47.014;7.652;2022-09-21T19:05:33;13.10;99.90
3752;DHT22;50827;47.014;7.652;2022-09-21T19:08:13;13.10;99.90
3752;DHT22;50827;47.014;7.652;2022-09-21T19:11:09;13.00;99.90
3752;DHT22;50827;47.014;7.652;2022-09-21T19:13:57;12.90;99.90
3752;DHT22;50827;47.014;7.652;2022-09-21T19:16:34;12.90;99.90
3752;DHT22;50827;47.014;7.652;2022-09-21T19:19:10;12.90;99.90
3752;DHT22;50827;47.014;7.652;2022-09-21T19:27:38;12.70;99.90
3752;DHT22;50827;47.014;7.652;2022-09-21T19:30:13;12.70;99.90
3752;DHT22;50827;47.014;7.652;2022-09-21T19:32:51;12.60;99.90
3752;DHT22;50827;47.014;7.652;2022-09-21T19:37:47;12.70;99.90
3752;DHT22;50827;47.014;7.652;2022-09-21T19:40:16;12.60;99.90
3752;DHT22;50827;47.014;7.652;2022-09-21T19:45:40;12.50;99.90
3752;DHT22;50827;47.014;7.652;2022-09-21T19:48:14;12.40;99.90
3752;DHT22;50827;47.014;7.652;2022-09-21T19:50:51;12.40;99.90
3752;DHT22;50827;47.014;7.652;2022-09-21T19:53:20;12.30;99.90
3752;DHT22;50827;47.014;7.652;2022-09-21T19:56:13;12.30;99.90
3752;DHT22;50827;47.014;7.652;2022-09-21T19:58:59;12.20;99.90
3752;DHT22;50827;47.014;7.652;2022-09-21T20:01:51;12.20;99.90